createdAt,value
2023-05-05T00:04:25.624Z,9.00
2023-05-05T00:14:27.475Z,8.70
2023-05-05T00:24:29.428Z,8.50
2023-05-05T00:34:31.350Z,8.10
2023-05-05T00:44:40.896Z,8.10
2023-05-05T00:54:42.873Z,8.00
2023-05-05T01:04:44.817Z,8.10
2023-05-05T01:14:55.313Z,8.00
2023-05-05T01:25:35.778Z,7.90
2023-05-05T01:35:47.228Z,7.80
2023-05-05T01:45:49.624Z,7.90
2023-05-05T01:55:54.477Z,8.00
2023-05-05T02:05:58.333Z,7.90
2023-05-05T02:16:01.510Z,7.80
2023-05-05T02:26:09.867Z,7.60
2023-05-05T02:36:25.882Z,7.20
2023-05-05T02:46:32.833Z,7.30
2023-05-05T02:56:40.955Z,7.10
2023-05-05T03:06:48.892Z,7.20
2023-05-05T03:16:55.645Z,7.30
2023-05-05T03:26:58.386Z,7.20
2023-05-05T03:37:06.888Z,7.30
2023-05-05T03:47:09.118Z,7.10
2023-05-05T03:57:13.857Z,7.30
2023-05-05T04:07:16.858Z,7.40
2023-05-05T04:17:19.180Z,6.90
2023-05-05T04:27:21.197Z,7.30
2023-05-05T04:37:24.485Z,7.70
2023-05-05T04:47:26.467Z,8.20
2023-05-05T04:57:30.241Z,8.70
2023-05-05T05:07:32.644Z,9.60
2023-05-05T05:17:34.590Z,11.00
2023-05-05T05:27:36.692Z,12.30
2023-05-05T05:37:40.234Z,13.60
2023-05-05T05:47:42.546Z,14.60
2023-05-05T05:57:44.622Z,16.10
2023-05-05T06:07:48.096Z,16.20
2023-05-05T06:17:50.612Z,16.20
2023-05-05T06:27:52.537Z,16.40
2023-05-05T06:37:54.422Z,17.50
2023-05-05T06:47:56.394Z,18.00
2023-05-05T06:57:58.555Z,17.60
2023-05-05T07:08:00.858Z,18.10
2023-05-05T07:18:02.822Z,17.50
2023-05-05T07:28:05.302Z,17.50
2023-05-05T07:38:08.644Z,18.10
2023-05-05T07:48:11.586Z,19.20
2023-05-05T07:58:13.767Z,19.30
2023-05-05T08:08:15.815Z,20.90
2023-05-05T08:18:17.608Z,19.70
2023-05-05T08:28:19.609Z,20.30
2023-05-05T08:38:21.463Z,19.20
2023-05-05T08:48:25.411Z,20.00
2023-05-05T08:58:30.325Z,21.40
2023-05-05T09:08:33.116Z,20.60
2023-05-05T09:18:37.501Z,19.80
2023-05-05T09:28:51.291Z,20.80
2023-05-05T09:39:05.782Z,19.80
2023-05-05T09:49:15.649Z,20.30
2023-05-05T09:59:17.530Z,19.80
2023-05-05T10:09:19.509Z,20.50
2023-05-05T10:19:23.617Z,21.60
2023-05-05T10:29:57.820Z,21.60
2023-05-05T10:40:02.158Z,22.00
2023-05-05T10:50:30.657Z,22.00
2023-05-05T11:00:41.400Z,21.70
2023-05-05T11:10:46.204Z,20.60
2023-05-05T11:20:48.010Z,21.10
2023-05-05T11:30:56.280Z,20.80
2023-05-05T11:41:10.990Z,21.60
2023-05-05T11:51:13.713Z,21.80
2023-05-05T12:01:16.186Z,21.20
2023-05-05T12:11:18.877Z,21.40
2023-05-05T12:21:22.631Z,21.50
2023-05-05T12:31:41.608Z,21.10
2023-05-05T12:41:43.832Z,21.00
2023-05-05T12:51:56.608Z,21.30
2023-05-05T13:02:00.125Z,21.20
2023-05-05T13:12:02.379Z,20.70
2023-05-05T13:22:04.264Z,20.60
2023-05-05T13:32:08.243Z,20.60
2023-05-05T13:42:10.355Z,20.80
2023-05-05T13:52:12.259Z,20.90
2023-05-05T14:02:14.116Z,20.70
2023-05-05T14:12:15.892Z,20.80
2023-05-05T14:22:18.005Z,20.60
2023-05-05T14:32:19.914Z,20.90
2023-05-05T14:42:21.698Z,20.40
2023-05-05T14:52:23.582Z,20.60
2023-05-05T15:02:25.504Z,20.60
2023-05-05T15:12:27.947Z,20.40
2023-05-05T15:22:29.824Z,20.30
2023-05-05T15:32:31.824Z,20.30
2023-05-05T15:42:33.636Z,20.40
2023-05-05T15:52:35.470Z,20.10
2023-05-05T16:02:37.421Z,20.10
2023-05-05T16:12:39.752Z,19.90
2023-05-05T16:22:41.614Z,19.90
2023-05-05T16:32:43.596Z,19.90
2023-05-05T16:42:45.470Z,19.70
2023-05-05T16:52:47.332Z,19.50
2023-05-05T17:02:49.219Z,19.30
2023-05-05T17:12:51.042Z,19.10
2023-05-05T17:22:53.409Z,18.90
2023-05-05T17:32:55.273Z,18.70
2023-05-05T17:42:57.133Z,18.40
2023-05-05T17:52:58.926Z,18.00
2023-05-05T18:03:01.059Z,17.60
2023-05-05T18:13:03.241Z,17.40
2023-05-05T18:23:05.117Z,17.00
2023-05-05T18:33:06.955Z,16.80
2023-05-05T18:43:08.785Z,16.50
2023-05-05T18:53:10.853Z,16.30
2023-05-05T19:03:12.611Z,16.10
2023-05-05T19:13:14.496Z,15.90
2023-05-05T19:23:16.510Z,15.70
2023-05-05T19:33:18.292Z,15.40
2023-05-05T19:43:20.426Z,15.20
2023-05-05T19:53:22.302Z,14.90
2023-05-05T20:03:24.142Z,14.80
2023-05-05T20:13:26.060Z,14.60
2023-05-05T20:23:27.929Z,14.50
2023-05-05T20:33:29.877Z,14.30
2023-05-05T20:43:31.725Z,14.10
2023-05-05T20:53:33.548Z,14.00
2023-05-05T21:03:36.650Z,13.80
2023-05-05T21:13:38.598Z,13.60
2023-05-05T21:23:40.512Z,13.40
2023-05-05T21:33:42.796Z,13.20
2023-05-05T21:43:44.620Z,13.00
2023-05-05T21:53:46.489Z,12.80
2023-05-05T22:03:48.505Z,12.70
2023-05-05T22:13:50.594Z,12.60
2023-05-05T22:23:52.473Z,12.50
2023-05-05T22:33:54.688Z,12.20
2023-05-05T22:43:56.987Z,12.10
2023-05-05T22:53:58.987Z,12.00
2023-05-05T23:04:01.007Z,12.00
2023-05-05T23:14:03.005Z,11.90
2023-05-05T23:24:04.960Z,11.90
2023-05-05T23:34:06.902Z,11.90
2023-05-05T23:44:08.927Z,11.70
2023-05-05T23:54:10.782Z,11.50
